Terminal Aerodrome Forecast
Issued by NWS

Home | Current Version | Previous Version | Text Only | Print | Product List | Glossary On
Versions: 1 2 3 4 5 6 7 8 9 10 11 12 13 14 15 16 17 18 19 20 21 22 23 24 25
000
FTUS43 KMQT 230500
TAFIWD
TAF
KIWD 230528Z 2306/2406 01004KT 1/2SM FG OVC002
     FM231500 08005KT P6SM OVC008
     FM231900 08006KT P6SM OVC015
     FM240300 12006KT 5SM BR OVC007
      AMD NOT SKED=

USA.gov is the U.S. government's official web portal to all federal, state and local government web resources and services.